sensor_id;sensor_type;location;lat;lon;timestamp;P1;durP1;ratioP1;P2;durP2;ratioP2
20381;SDS011;10350;51.280;12.400;2024-01-30T00:01:55;30.63;;;28.83;;
20381;SDS011;10350;51.280;12.400;2024-01-30T00:04:20;32.30;;;30.10;;
20381;SDS011;10350;51.280;12.400;2024-01-30T00:06:46;31.55;;;29.67;;
20381;SDS011;10350;51.280;12.400;2024-01-30T00:09:12;30.38;;;28.48;;
20381;SDS011;10350;51.280;12.400;2024-01-30T00:11:38;31.27;;;29.38;;
20381;SDS011;10350;51.280;12.400;2024-01-30T00:14:04;31.45;;;29.45;;
20381;SDS011;10350;51.280;12.400;2024-01-30T00:16:30;30.05;;;28.05;;
20381;SDS011;10350;51.280;12.400;2024-01-30T00:18:56;32.28;;;30.42;;
20381;SDS011;10350;51.280;12.400;2024-01-30T00:21:22;31.85;;;29.65;;
20381;SDS011;10350;51.280;12.400;2024-01-30T00:23:48;28.67;;;27.00;;
20381;SDS011;10350;51.280;12.400;2024-01-30T00:26:14;29.75;;;28.05;;
20381;SDS011;10350;51.280;12.400;2024-01-30T00:28:41;32.00;;;30.05;;
20381;SDS011;10350;51.280;12.400;2024-01-30T00:31:07;30.85;;;29.00;;
20381;SDS011;10350;51.280;12.400;2024-01-30T00:33:33;30.35;;;28.58;;
20381;SDS011;10350;51.280;12.400;2024-01-30T00:35:59;31.50;;;29.63;;
20381;SDS011;10350;51.280;12.400;2024-01-30T00:38:25;30.85;;;28.88;;
20381;SDS011;10350;51.280;12.400;2024-01-30T00:40:51;29.75;;;28.05;;
20381;SDS011;10350;51.280;12.400;2024-01-30T00:43:18;33.05;;;31.00;;
20381;SDS011;10350;51.280;12.400;2024-01-30T00:45:44;29.97;;;28.23;;
20381;SDS011;10350;51.280;12.400;2024-01-30T00:48:10;31.50;;;29.35;;
20381;SDS011;10350;51.280;12.400;2024-01-30T00:50:36;29.67;;;27.88;;
20381;SDS011;10350;51.280;12.400;2024-01-30T00:53:02;30.58;;;28.67;;
20381;SDS011;10350;51.280;12.400;2024-01-30T00:55:28;32.63;;;30.73;;
20381;SDS011;10350;51.280;12.400;2024-01-30T00:57:54;30.48;;;28.67;;
20381;SDS011;10350;51.280;12.400;2024-01-30T01:00:20;32.58;;;30.58;;
20381;SDS011;10350;51.280;12.400;2024-01-30T01:02:47;33.55;;;31.65;;
20381;SDS011;10350;51.280;12.400;2024-01-30T01:05:13;31.02;;;29.23;;
20381;SDS011;10350;51.280;12.400;2024-01-30T01:07:39;31.13;;;29.33;;
20381;SDS011;10350;51.280;12.400;2024-01-30T01:10:05;32.75;;;30.75;;
20381;SDS011;10350;51.280;12.400;2024-01-30T01:12:31;32.05;;;29.50;;
20381;SDS011;10350;51.280;12.400;2024-01-30T01:14:57;33.20;;;31.23;;
20381;SDS011;10350;51.280;12.400;2024-01-30T01:17:23;30.95;;;28.73;;
20381;SDS011;10350;51.280;12.400;2024-01-30T01:19:49;33.25;;;30.98;;
20381;SDS011;10350;51.280;12.400;2024-01-30T01:22:15;32.63;;;30.73;;
20381;SDS011;10350;51.280;12.400;2024-01-30T01:24:42;33.97;;;32.03;;
20381;SDS011;10350;51.280;12.400;2024-01-30T01:27:08;36.63;;;33.97;;
20381;SDS011;10350;51.280;12.400;2024-01-30T01:29:34;34.08;;;31.88;;
20381;SDS011;10350;51.280;12.400;2024-01-30T01:32:00;30.83;;;28.92;;
20381;SDS011;10350;51.280;12.400;2024-01-30T01:34:25;33.13;;;30.92;;
20381;SDS011;10350;51.280;12.400;2024-01-30T01:36:51;30.63;;;28.20;;
20381;SDS011;10350;51.280;12.400;2024-01-30T01:39:20;31.30;;;29.42;;
20381;SDS011;10350;51.280;12.400;2024-01-30T01:41:46;32.60;;;30.67;;
20381;SDS011;10350;51.280;12.400;2024-01-30T01:44:12;30.83;;;28.92;;
20381;SDS011;10350;51.280;12.400;2024-01-30T01:46:38;32.90;;;30.63;;
20381;SDS011;10350;51.280;12.400;2024-01-30T01:49:04;30.60;;;28.63;;
20381;SDS011;10350;51.280;12.400;2024-01-30T01:51:31;28.67;;;26.80;;
20381;SDS011;10350;51.280;12.400;2024-01-30T01:53:58;29.70;;;27.98;;
20381;SDS011;10350;51.280;12.400;2024-01-30T01:56:25;29.95;;;27.73;;
20381;SDS011;10350;51.280;12.400;2024-01-30T01:58:52;29.70;;;27.67;;
20381;SDS011;10350;51.280;12.400;2024-01-30T02:01:20;28.17;;;26.25;;
20381;SDS011;10350;51.280;12.400;2024-01-30T02:03:46;31.02;;;28.92;;
20381;SDS011;10350;51.280;12.400;2024-01-30T02:06:13;27.30;;;25.45;;
20381;SDS011;10350;51.280;12.400;2024-01-30T02:08:39;31.10;;;29.13;;
20381;SDS011;10350;51.280;12.400;2024-01-30T02:11:04;30.48;;;28.23;;
20381;SDS011;10350;51.280;12.400;2024-01-30T02:13:30;31.35;;;29.35;;
20381;SDS011;10350;51.280;12.400;2024-01-30T02:15:56;32.47;;;29.88;;
20381;SDS011;10350;51.280;12.400;2024-01-30T02:18:22;28.20;;;26.17;;
20381;SDS011;10350;51.280;12.400;2024-01-30T02:20:48;28.52;;;26.73;;
20381;SDS011;10350;51.280;12.400;2024-01-30T02:23:17;30.65;;;28.52;;
20381;SDS011;10350;51.280;12.400;2024-01-30T02:25:45;31.25;;;29.38;;
20381;SDS011;10350;51.280;12.400;2024-01-30T02:28:11;28.75;;;26.73;;
20381;SDS011;10350;51.280;12.400;2024-01-30T02:30:37;30.08;;;27.58;;
20381;SDS011;10350;51.280;12.400;2024-01-30T02:33:03;30.45;;;28.35;;
20381;SDS011;10350;51.280;12.400;2024-01-30T02:35:29;30.23;;;28.20;;
20381;SDS011;10350;51.280;12.400;2024-01-30T02:37:55;27.55;;;25.85;;
20381;SDS011;10350;51.280;12.400;2024-01-30T02:40:21;30.42;;;28.38;;
20381;SDS011;10350;51.280;12.400;2024-01-30T02:42:47;30.88;;;28.75;;
20381;SDS011;10350;51.280;12.400;2024-01-30T02:45:13;31.27;;;29.10;;
20381;SDS011;10350;51.280;12.400;2024-01-30T02:47:39;28.67;;;26.88;;
20381;SDS011;10350;51.280;12.400;2024-01-30T02:50:06;30.80;;;28.60;;
20381;SDS011;10350;51.280;12.400;2024-01-30T02:52:32;31.00;;;29.05;;
20381;SDS011;10350;51.280;12.400;2024-01-30T02:54:58;29.85;;;27.95;;
20381;SDS011;10350;51.280;12.400;2024-01-30T02:57:24;33.55;;;31.00;;
20381;SDS011;10350;51.280;12.400;2024-01-30T02:59:50;29.58;;;27.67;;
20381;SDS011;10350;51.280;12.400;2024-01-30T03:02:16;29.83;;;28.08;;
20381;SDS011;10350;51.280;12.400;2024-01-30T03:04:42;30.95;;;28.95;;
20381;SDS011;10350;51.280;12.400;2024-01-30T03:07:08;29.60;;;27.70;;
20381;SDS011;10350;51.280;12.400;2024-01-30T03:09:34;29.33;;;27.40;;
20381;SDS011;10350;51.280;12.400;2024-01-30T03:12:00;30.92;;;28.98;;
20381;SDS011;10350;51.280;12.400;2024-01-30T03:14:26;30.80;;;28.80;;
20381;SDS011;10350;51.280;12.400;2024-01-30T03:16:52;29.05;;;26.98;;
20381;SDS011;10350;51.280;12.400;2024-01-30T03:19:18;31.08;;;29.17;;
20381;SDS011;10350;51.280;12.400;2024-01-30T03:21:44;30.50;;;28.50;;
20381;SDS011;10350;51.280;12.400;2024-01-30T03:24:09;29.52;;;27.67;;
20381;SDS011;10350;51.280;12.400;2024-01-30T03:26:35;29.77;;;28.00;;
20381;SDS011;10350;51.280;12.400;2024-01-30T03:29:01;28.02;;;26.25;;
20381;SDS011;10350;51.280;12.400;2024-01-30T03:31:27;29.73;;;27.92;;
20381;SDS011;10350;51.280;12.400;2024-01-30T03:33:53;30.05;;;28.17;;
20381;SDS011;10350;51.280;12.400;2024-01-30T03:36:19;30.63;;;28.65;;
20381;SDS011;10350;51.280;12.400;2024-01-30T03:38:45;29.35;;;27.65;;
20381;SDS011;10350;51.280;12.400;2024-01-30T03:41:11;28.90;;;27.10;;
20381;SDS011;10350;51.280;12.400;2024-01-30T03:43:37;28.88;;;27.13;;
20381;SDS011;10350;51.280;12.400;2024-01-30T03:46:03;29.70;;;27.90;;
20381;SDS011;10350;51.280;12.400;2024-01-30T03:48:29;31.20;;;29.20;;
20381;SDS011;10350;51.280;12.400;2024-01-30T03:50:55;30.58;;;28.48;;
20381;SDS011;10350;51.280;12.400;2024-01-30T03:53:21;28.80;;;26.63;;
20381;SDS011;10350;51.280;12.400;2024-01-30T03:55:47;30.90;;;29.08;;
20381;SDS011;10350;51.280;12.400;2024-01-30T03:58:13;30.42;;;28.63;;
20381;SDS011;10350;51.280;12.400;2024-01-30T04:00:39;30.02;;;28.23;;
20381;SDS011;10350;51.280;12.400;2024-01-30T04:03:06;28.25;;;26.45;;
20381;SDS011;10350;51.280;12.400;2024-01-30T04:05:32;29.60;;;27.73;;
20381;SDS011;10350;51.280;12.400;2024-01-30T04:07:58;31.67;;;29.67;;
20381;SDS011;10350;51.280;12.400;2024-01-30T04:10:24;28.23;;;26.42;;
20381;SDS011;10350;51.280;12.400;2024-01-30T04:12:50;30.83;;;28.70;;
20381;SDS011;10350;51.280;12.400;2024-01-30T04:15:16;27.85;;;26.13;;
20381;SDS011;10350;51.280;12.400;2024-01-30T04:17:42;30.08;;;27.50;;
20381;SDS011;10350;51.280;12.400;2024-01-30T04:20:13;31.25;;;29.33;;
20381;SDS011;10350;51.280;12.400;2024-01-30T04:22:39;30.80;;;28.80;;
20381;SDS011;10350;51.280;12.400;2024-01-30T04:25:05;31.70;;;29.23;;
20381;SDS011;10350;51.280;12.400;2024-01-30T04:27:31;28.67;;;26.88;;
20381;SDS011;10350;51.280;12.400;2024-01-30T04:29:57;31.52;;;29.63;;
20381;SDS011;10350;51.280;12.400;2024-01-30T04:32:23;28.73;;;26.73;;
20381;SDS011;10350;51.280;12.400;2024-01-30T04:34:49;28.48;;;26.70;;
20381;SDS011;10350;51.280;12.400;2024-01-30T04:37:14;31.80;;;29.90;;
20381;SDS011;10350;51.280;12.400;2024-01-30T04:39:40;28.42;;;26.63;;
20381;SDS011;10350;51.280;12.400;2024-01-30T04:42:06;32.92;;;30.77;;
20381;SDS011;10350;51.280;12.400;2024-01-30T04:44:32;29.70;;;27.90;;
20381;SDS011;10350;51.280;12.400;2024-01-30T04:46:58;32.72;;;30.73;;
20381;SDS011;10350;51.280;12.400;2024-01-30T04:49:26;30.65;;;28.60;;
20381;SDS011;10350;51.280;12.400;2024-01-30T04:51:52;33.03;;;31.10;;
20381;SDS011;10350;51.280;12.400;2024-01-30T04:54:18;31.10;;;29.30;;
20381;SDS011;10350;51.280;12.400;2024-01-30T04:56:44;31.42;;;29.55;;
20381;SDS011;10350;51.280;12.400;2024-01-30T04:59:10;31.40;;;29.40;;
20381;SDS011;10350;51.280;12.400;2024-01-30T05:01:36;32.58;;;30.30;;
20381;SDS011;10350;51.280;12.400;2024-01-30T05:04:01;34.28;;;32.03;;
20381;SDS011;10350;51.280;12.400;2024-01-30T05:06:28;37.83;;;35.50;;
20381;SDS011;10350;51.280;12.400;2024-01-30T05:08:54;32.22;;;29.92;;
20381;SDS011;10350;51.280;12.400;2024-01-30T05:11:20;34.25;;;32.25;;
20381;SDS011;10350;51.280;12.400;2024-01-30T05:13:46;33.35;;;31.20;;
20381;SDS011;10350;51.280;12.400;2024-01-30T05:16:12;33.33;;;31.35;;
20381;SDS011;10350;51.280;12.400;2024-01-30T05:18:38;34.25;;;31.80;;
20381;SDS011;10350;51.280;12.400;2024-01-30T05:21:05;33.25;;;31.02;;
20381;SDS011;10350;51.280;12.400;2024-01-30T05:23:31;32.38;;;30.40;;
20381;SDS011;10350;51.280;12.400;2024-01-30T05:25:57;33.53;;;31.52;;
20381;SDS011;10350;51.280;12.400;2024-01-30T05:28:25;35.50;;;33.30;;
20381;SDS011;10350;51.280;12.400;2024-01-30T05:30:51;32.17;;;30.02;;
20381;SDS011;10350;51.280;12.400;2024-01-30T05:33:17;34.80;;;32.58;;
20381;SDS011;10350;51.280;12.400;2024-01-30T05:35:43;33.92;;;31.73;;
20381;SDS011;10350;51.280;12.400;2024-01-30T05:38:09;32.33;;;30.27;;
20381;SDS011;10350;51.280;12.400;2024-01-30T05:40:35;31.98;;;30.08;;
20381;SDS011;10350;51.280;12.400;2024-01-30T05:43:01;34.03;;;31.85;;
20381;SDS011;10350;51.280;12.400;2024-01-30T05:45:27;35.35;;;33.25;;
20381;SDS011;10350;51.280;12.400;2024-01-30T05:47:53;32.67;;;30.77;;
20381;SDS011;10350;51.280;12.400;2024-01-30T05:50:19;29.25;;;27.33;;
20381;SDS011;10350;51.280;12.400;2024-01-30T05:52:48;28.83;;;27.00;;
20381;SDS011;10350;51.280;12.400;2024-01-30T05:55:14;28.67;;;26.67;;
20381;SDS011;10350;51.280;12.400;2024-01-30T05:57:40;25.55;;;23.85;;
20381;SDS011;10350;51.280;12.400;2024-01-30T06:00:06;28.63;;;26.60;;
20381;SDS011;10350;51.280;12.400;2024-01-30T06:02:33;28.30;;;26.40;;
20381;SDS011;10350;51.280;12.400;2024-01-30T06:04:59;24.95;;;23.30;;
20381;SDS011;10350;51.280;12.400;2024-01-30T06:07:25;29.52;;;27.23;;
20381;SDS011;10350;51.280;12.400;2024-01-30T06:09:51;28.27;;;26.63;;
20381;SDS011;10350;51.280;12.400;2024-01-30T06:12:17;29.08;;;27.40;;
20381;SDS011;10350;51.280;12.400;2024-01-30T06:14:43;33.72;;;31.65;;
20381;SDS011;10350;51.280;12.400;2024-01-30T06:17:09;32.83;;;30.65;;
20381;SDS011;10350;51.280;12.400;2024-01-30T06:19:36;33.65;;;31.35;;
20381;SDS011;10350;51.280;12.400;2024-01-30T06:22:03;32.58;;;30.52;;
20381;SDS011;10350;51.280;12.400;2024-01-30T06:24:29;33.58;;;31.30;;
20381;SDS011;10350;51.280;12.400;2024-01-30T06:26:55;33.53;;;31.17;;
20381;SDS011;10350;51.280;12.400;2024-01-30T06:29:21;33.60;;;31.20;;
20381;SDS011;10350;51.280;12.400;2024-01-30T06:31:47;35.90;;;33.58;;
20381;SDS011;10350;51.280;12.400;2024-01-30T06:34:13;34.40;;;32.17;;
20381;SDS011;10350;51.280;12.400;2024-01-30T06:36:38;33.08;;;30.95;;
20381;SDS011;10350;51.280;12.400;2024-01-30T06:39:04;32.05;;;29.98;;
20381;SDS011;10350;51.280;12.400;2024-01-30T06:41:30;33.78;;;31.70;;
20381;SDS011;10350;51.280;12.400;2024-01-30T06:43:56;33.67;;;31.48;;
20381;SDS011;10350;51.280;12.400;2024-01-30T06:46:22;34.33;;;32.10;;
20381;SDS011;10350;51.280;12.400;2024-01-30T06:48:48;33.92;;;31.35;;
20381;SDS011;10350;51.280;12.400;2024-01-30T06:51:14;33.47;;;31.08;;
20381;SDS011;10350;51.280;12.400;2024-01-30T06:53:40;34.60;;;32.50;;
20381;SDS011;10350;51.280;12.400;2024-01-30T06:56:06;35.28;;;33.05;;
20381;SDS011;10350;51.280;12.400;2024-01-30T06:58:32;33.70;;;31.73;;
20381;SDS011;10350;51.280;12.400;2024-01-30T07:00:58;31.30;;;29.42;;
20381;SDS011;10350;51.280;12.400;2024-01-30T07:03:24;32.15;;;30.17;;
20381;SDS011;10350;51.280;12.400;2024-01-30T07:05:50;30.60;;;28.63;;
20381;SDS011;10350;51.280;12.400;2024-01-30T07:08:16;34.55;;;32.40;;
20381;SDS011;10350;51.280;12.400;2024-01-30T07:10:43;33.65;;;31.35;;
20381;SDS011;10350;51.280;12.400;2024-01-30T07:13:09;30.75;;;28.73;;
20381;SDS011;10350;51.280;12.400;2024-01-30T07:15:35;31.52;;;29.60;;
20381;SDS011;10350;51.280;12.400;2024-01-30T07:18:01;31.25;;;29.25;;
20381;SDS011;10350;51.280;12.400;2024-01-30T07:20:27;30.50;;;28.50;;
20381;SDS011;10350;51.280;12.400;2024-01-30T07:22:55;32.60;;;30.10;;
20381;SDS011;10350;51.280;12.400;2024-01-30T07:25:21;30.05;;;27.98;;
20381;SDS011;10350;51.280;12.400;2024-01-30T07:27:51;30.25;;;28.27;;
20381;SDS011;10350;51.280;12.400;2024-01-30T07:30:17;29.05;;;26.95;;
20381;SDS011;10350;51.280;12.400;2024-01-30T07:32:43;30.00;;;27.88;;
20381;SDS011;10350;51.280;12.400;2024-01-30T07:35:09;33.22;;;30.92;;
20381;SDS011;10350;51.280;12.400;2024-01-30T07:37:36;32.58;;;30.52;;
20381;SDS011;10350;51.280;12.400;2024-01-30T07:40:02;33.58;;;31.50;;
20381;SDS011;10350;51.280;12.400;2024-01-30T07:42:28;34.65;;;32.60;;
20381;SDS011;10350;51.280;12.400;2024-01-30T07:44:54;37.53;;;34.88;;
20381;SDS011;10350;51.280;12.400;2024-01-30T07:47:20;34.55;;;32.40;;
20381;SDS011;10350;51.280;12.400;2024-01-30T07:49:46;35.22;;;33.22;;
20381;SDS011;10350;51.280;12.400;2024-01-30T07:52:13;35.30;;;33.03;;
20381;SDS011;10350;51.280;12.400;2024-01-30T07:54:39;34.20;;;31.70;;
20381;SDS011;10350;51.280;12.400;2024-01-30T07:57:04;33.67;;;31.52;;
20381;SDS011;10350;51.280;12.400;2024-01-30T07:59:30;35.85;;;33.55;;
20381;SDS011;10350;51.280;12.400;2024-01-30T08:01:56;35.90;;;33.70;;
20381;SDS011;10350;51.280;12.400;2024-01-30T08:04:22;33.95;;;31.42;;
20381;SDS011;10350;51.280;12.400;2024-01-30T08:06:48;36.60;;;34.35;;
20381;SDS011;10350;51.280;12.400;2024-01-30T08:09:14;35.80;;;33.70;;
20381;SDS011;10350;51.280;12.400;2024-01-30T08:11:40;34.13;;;32.03;;
20381;SDS011;10350;51.280;12.400;2024-01-30T08:14:06;33.35;;;31.05;;
20381;SDS011;10350;51.280;12.400;2024-01-30T08:16:32;32.75;;;30.67;;
20381;SDS011;10350;51.280;12.400;2024-01-30T08:18:58;30.77;;;28.77;;
20381;SDS011;10350;51.280;12.400;2024-01-30T08:21:23;32.17;;;30.08;;
20381;SDS011;10350;51.280;12.400;2024-01-30T08:23:49;33.08;;;30.95;;
20381;SDS011;10350;51.280;12.400;2024-01-30T08:26:15;30.80;;;28.92;;
20381;SDS011;10350;51.280;12.400;2024-01-30T08:28:41;35.30;;;32.83;;
20381;SDS011;10350;51.280;12.400;2024-01-30T08:31:07;39.50;;;37.00;;
20381;SDS011;10350;51.280;12.400;2024-01-30T08:33:36;47.80;;;44.88;;
20381;SDS011;10350;51.280;12.400;2024-01-30T08:36:02;58.28;;;54.85;;
20381;SDS011;10350;51.280;12.400;2024-01-30T08:38:28;55.60;;;52.40;;
20381;SDS011;10350;51.280;12.400;2024-01-30T08:40:55;54.58;;;50.97;;
20381;SDS011;10350;51.280;12.400;2024-01-30T08:43:21;53.70;;;50.67;;
20381;SDS011;10350;51.280;12.400;2024-01-30T08:45:47;52.85;;;49.33;;
20381;SDS011;10350;51.280;12.400;2024-01-30T08:48:12;49.03;;;46.03;;
20381;SDS011;10350;51.280;12.400;2024-01-30T08:50:38;46.38;;;43.58;;
20381;SDS011;10350;51.280;12.400;2024-01-30T08:53:04;39.17;;;36.70;;
20381;SDS011;10350;51.280;12.400;2024-01-30T08:55:30;39.92;;;37.42;;
20381;SDS011;10350;51.280;12.400;2024-01-30T08:57:56;36.85;;;34.55;;
20381;SDS011;10350;51.280;12.400;2024-01-30T09:00:22;33.05;;;30.92;;
20381;SDS011;10350;51.280;12.400;2024-01-30T09:02:48;34.63;;;32.28;;
20381;SDS011;10350;51.280;12.400;2024-01-30T09:05:14;36.22;;;33.92;;
20381;SDS011;10350;51.280;12.400;2024-01-30T09:07:40;35.15;;;33.08;;
20381;SDS011;10350;51.280;12.400;2024-01-30T09:10:06;35.45;;;33.15;;
20381;SDS011;10350;51.280;12.400;2024-01-30T09:12:32;36.90;;;34.40;;
20381;SDS011;10350;51.280;12.400;2024-01-30T09:14:58;36.75;;;34.35;;
20381;SDS011;10350;51.280;12.400;2024-01-30T09:17:24;34.92;;;32.78;;
20381;SDS011;10350;51.280;12.400;2024-01-30T09:19:50;34.00;;;31.80;;
20381;SDS011;10350;51.280;12.400;2024-01-30T09:22:16;36.05;;;33.53;;
20381;SDS011;10350;51.280;12.400;2024-01-30T09:24:42;35.88;;;33.75;;
20381;SDS011;10350;51.280;12.400;2024-01-30T09:27:08;36.38;;;34.13;;
20381;SDS011;10350;51.280;12.400;2024-01-30T09:29:34;36.65;;;34.40;;
20381;SDS011;10350;51.280;12.400;2024-01-30T09:32:01;34.88;;;32.78;;
20381;SDS011;10350;51.280;12.400;2024-01-30T09:34:27;34.85;;;32.85;;
20381;SDS011;10350;51.280;12.400;2024-01-30T09:36:53;36.40;;;34.20;;
20381;SDS011;10350;51.280;12.400;2024-01-30T09:39:19;38.83;;;36.30;;
20381;SDS011;10350;51.280;12.400;2024-01-30T09:41:48;39.25;;;36.63;;
20381;SDS011;10350;51.280;12.400;2024-01-30T09:44:15;37.55;;;34.97;;
20381;SDS011;10350;51.280;12.400;2024-01-30T09:46:41;37.47;;;35.03;;
20381;SDS011;10350;51.280;12.400;2024-01-30T09:49:07;38.67;;;36.17;;
20381;SDS011;10350;51.280;12.400;2024-01-30T09:51:34;39.88;;;37.33;;
20381;SDS011;10350;51.280;12.400;2024-01-30T09:54:01;40.65;;;38.15;;
20381;SDS011;10350;51.280;12.400;2024-01-30T09:56:28;39.65;;;37.33;;
20381;SDS011;10350;51.280;12.400;2024-01-30T09:58:54;40.80;;;38.38;;
20381;SDS011;10350;51.280;12.400;2024-01-30T10:01:20;39.50;;;37.20;;
20381;SDS011;10350;51.280;12.400;2024-01-30T10:03:46;44.05;;;41.05;;
20381;SDS011;10350;51.280;12.400;2024-01-30T10:06:12;41.65;;;39.13;;
20381;SDS011;10350;51.280;12.400;2024-01-30T10:08:38;43.50;;;40.90;;
20381;SDS011;10350;51.280;12.400;2024-01-30T10:11:04;47.42;;;44.50;;
20381;SDS011;10350;51.280;12.400;2024-01-30T10:13:31;43.53;;;40.83;;
20381;SDS011;10350;51.280;12.400;2024-01-30T10:15:57;40.78;;;38.30;;
20381;SDS011;10350;51.280;12.400;2024-01-30T10:18:23;45.40;;;42.50;;
20381;SDS011;10350;51.280;12.400;2024-01-30T10:20:49;41.03;;;38.22;;
20381;SDS011;10350;51.280;12.400;2024-01-30T10:23:15;40.78;;;38.28;;
20381;SDS011;10350;51.280;12.400;2024-01-30T10:25:41;43.97;;;41.17;;
20381;SDS011;10350;51.280;12.400;2024-01-30T10:28:07;41.28;;;38.53;;
20381;SDS011;10350;51.280;12.400;2024-01-30T10:30:33;42.05;;;39.50;;
20381;SDS011;10350;51.280;12.400;2024-01-30T10:32:59;41.38;;;38.88;;
20381;SDS011;10350;51.280;12.400;2024-01-30T10:35:25;42.03;;;39.17;;
20381;SDS011;10350;51.280;12.400;2024-01-30T10:37:51;41.85;;;39.25;;
20381;SDS011;10350;51.280;12.400;2024-01-30T10:40:17;41.53;;;39.10;;
20381;SDS011;10350;51.280;12.400;2024-01-30T10:42:47;41.70;;;39.10;;
20381;SDS011;10350;51.280;12.400;2024-01-30T10:45:13;42.45;;;39.95;;
20381;SDS011;10350;51.280;12.400;2024-01-30T10:47:41;43.78;;;41.13;;
20381;SDS011;10350;51.280;12.400;2024-01-30T10:50:09;41.38;;;38.80;;
20381;SDS011;10350;51.280;12.400;2024-01-30T10:52:35;43.35;;;40.63;;
20381;SDS011;10350;51.280;12.400;2024-01-30T10:55:01;44.25;;;41.42;;
20381;SDS011;10350;51.280;12.400;2024-01-30T10:57:31;50.80;;;47.90;;
20381;SDS011;10350;51.280;12.400;2024-01-30T10:59:59;61.40;;;57.85;;
20381;SDS011;10350;51.280;12.400;2024-01-30T11:02:26;67.28;;;63.33;;
20381;SDS011;10350;51.280;12.400;2024-01-30T11:04:56;68.43;;;64.43;;
20381;SDS011;10350;51.280;12.400;2024-01-30T11:07:26;66.72;;;62.75;;
20381;SDS011;10350;51.280;12.400;2024-01-30T11:09:53;1999.90;;;999.90;;
20381;SDS011;10350;51.280;12.400;2024-01-30T11:12:22;1999.90;;;999.90;;
20381;SDS011;10350;51.280;12.400;2024-01-30T11:14:48;1999.90;;;999.90;;
20381;SDS011;10350;51.280;12.400;2024-01-30T11:17:15;1029.72;;;527.95;;
20381;SDS011;10350;51.280;12.400;2024-01-30T11:19:41;63.58;;;60.03;;
20381;SDS011;10350;51.280;12.400;2024-01-30T11:22:07;60.95;;;57.42;;
20381;SDS011;10350;51.280;12.400;2024-01-30T11:24:38;63.05;;;59.45;;
20381;SDS011;10350;51.280;12.400;2024-01-30T11:27:07;61.28;;;57.72;;
20381;SDS011;10350;51.280;12.400;2024-01-30T11:29:34;1999.90;;;999.90;;
20381;SDS011;10350;51.280;12.400;2024-01-30T11:32:00;1999.90;;;999.90;;
20381;SDS011;10350;51.280;12.400;2024-01-30T11:34:27;1999.90;;;999.90;;
20381;SDS011;10350;51.280;12.400;2024-01-30T11:36:56;1999.90;;;999.90;;
20381;SDS011;10350;51.280;12.400;2024-01-30T11:39:24;1999.90;;;999.90;;
20381;SDS011;10350;51.280;12.400;2024-01-30T11:41:50;1999.90;;;999.90;;
20381;SDS011;10350;51.280;12.400;2024-01-30T11:44:18;1999.90;;;999.90;;
20381;SDS011;10350;51.280;12.400;2024-01-30T11:46:45;1999.90;;;999.90;;
20381;SDS011;10350;51.280;12.400;2024-01-30T11:49:11;1999.90;;;999.90;;
20381;SDS011;10350;51.280;12.400;2024-01-30T11:51:37;1999.90;;;999.90;;
20381;SDS011;10350;51.280;12.400;2024-01-30T11:54:09;1999.90;;;999.90;;
20381;SDS011;10350;51.280;12.400;2024-01-30T11:56:37;1999.90;;;999.90;;
20381;SDS011;10350;51.280;12.400;2024-01-30T11:59:14;1999.90;;;999.90;;
20381;SDS011;10350;51.280;12.400;2024-01-30T12:01:49;1999.90;;;999.90;;
20381;SDS011;10350;51.280;12.400;2024-01-30T12:04:16;1999.90;;;999.90;;
20381;SDS011;10350;51.280;12.400;2024-01-30T12:06:57;1999.90;;;999.90;;
20381;SDS011;10350;51.280;12.400;2024-01-30T12:09:51;1999.90;;;999.90;;
20381;SDS011;10350;51.280;12.400;2024-01-30T12:12:18;1999.90;;;999.90;;
20381;SDS011;10350;51.280;12.400;2024-01-30T12:14:44;1999.90;;;999.90;;
20381;SDS011;10350;51.280;12.400;2024-01-30T12:17:10;1999.90;;;999.90;;
20381;SDS011;10350;51.280;12.400;2024-01-30T12:19:37;1999.90;;;999.90;;
20381;SDS011;10350;51.280;12.400;2024-01-30T12:22:03;1999.90;;;999.90;;
20381;SDS011;10350;51.280;12.400;2024-01-30T12:24:29;1999.90;;;999.90;;
20381;SDS011;10350;51.280;12.400;2024-01-30T12:26:58;1999.90;;;999.90;;
20381;SDS011;10350;51.280;12.400;2024-01-30T12:29:24;1999.90;;;999.90;;
20381;SDS011;10350;51.280;12.400;2024-01-30T12:31:52;1999.90;;;999.90;;
20381;SDS011;10350;51.280;12.400;2024-01-30T12:34:19;1999.90;;;999.90;;
20381;SDS011;10350;51.280;12.400;2024-01-30T12:36:46;1999.90;;;999.90;;
20381;SDS011;10350;51.280;12.400;2024-01-30T12:39:12;1999.90;;;999.90;;
20381;SDS011;10350;51.280;12.400;2024-01-30T12:41:39;1999.90;;;999.90;;
20381;SDS011;10350;51.280;12.400;2024-01-30T12:44:05;1999.90;;;999.90;;
20381;SDS011;10350;51.280;12.400;2024-01-30T12:46:31;1999.90;;;999.90;;
20381;SDS011;10350;51.280;12.400;2024-01-30T12:48:57;1999.90;;;999.90;;
20381;SDS011;10350;51.280;12.400;2024-01-30T12:51:23;46.08;;;43.35;;
20381;SDS011;10350;51.280;12.400;2024-01-30T12:53:49;47.22;;;44.38;;
20381;SDS011;10350;51.280;12.400;2024-01-30T12:56:15;48.72;;;45.88;;
20381;SDS011;10350;51.280;12.400;2024-01-30T12:58:41;48.53;;;45.53;;
20381;SDS011;10350;51.280;12.400;2024-01-30T13:01:08;48.53;;;45.60;;
20381;SDS011;10350;51.280;12.400;2024-01-30T13:03:34;45.90;;;43.15;;
20381;SDS011;10350;51.280;12.400;2024-01-30T13:06:00;46.05;;;43.28;;
20381;SDS011;10350;51.280;12.400;2024-01-30T13:08:26;46.88;;;44.15;;
20381;SDS011;10350;51.280;12.400;2024-01-30T13:10:51;49.97;;;46.63;;
20381;SDS011;10350;51.280;12.400;2024-01-30T13:13:17;46.67;;;43.70;;
20381;SDS011;10350;51.280;12.400;2024-01-30T13:15:43;49.47;;;46.42;;
20381;SDS011;10350;51.280;12.400;2024-01-30T13:18:09;47.08;;;43.88;;
20381;SDS011;10350;51.280;12.400;2024-01-30T13:20:35;46.72;;;44.10;;
20381;SDS011;10350;51.280;12.400;2024-01-30T13:23:01;46.75;;;43.70;;
20381;SDS011;10350;51.280;12.400;2024-01-30T13:25:27;44.88;;;42.05;;
20381;SDS011;10350;51.280;12.400;2024-01-30T13:27:53;49.03;;;45.90;;
20381;SDS011;10350;51.280;12.400;2024-01-30T13:30:19;48.72;;;45.75;;
20381;SDS011;10350;51.280;12.400;2024-01-30T13:32:45;45.75;;;42.95;;
20381;SDS011;10350;51.280;12.400;2024-01-30T13:35:11;48.72;;;45.75;;
20381;SDS011;10350;51.280;12.400;2024-01-30T13:37:37;45.42;;;42.63;;
20381;SDS011;10350;51.280;12.400;2024-01-30T13:40:04;48.35;;;45.55;;
20381;SDS011;10350;51.280;12.400;2024-01-30T13:42:34;46.55;;;43.55;;
20381;SDS011;10350;51.280;12.400;2024-01-30T13:45:00;46.42;;;43.65;;
20381;SDS011;10350;51.280;12.400;2024-01-30T13:47:25;46.80;;;43.83;;
20381;SDS011;10350;51.280;12.400;2024-01-30T13:49:51;47.35;;;44.10;;
20381;SDS011;10350;51.280;12.400;2024-01-30T13:52:18;49.03;;;45.67;;
20381;SDS011;10350;51.280;12.400;2024-01-30T13:54:44;46.72;;;43.92;;
20381;SDS011;10350;51.280;12.400;2024-01-30T13:57:09;47.03;;;44.33;;
20381;SDS011;10350;51.280;12.400;2024-01-30T13:59:35;47.75;;;45.00;;
20381;SDS011;10350;51.280;12.400;2024-01-30T14:02:01;46.08;;;43.47;;